Login
Access
Login with your mtb-forum.it nickname and password.


You do not have an account? Sign up here for free

Lordkeforal

Last training unit 24/04/2016
3
Followers
21 916 Km
itineraries
238 320 m
of total vertical gain
810
hours of riding
27.09 Km/h
average speed
123
average HR


24/04/2016 Show to everybody òkjb 142.67 Km 2364 m 04:47:00 29.83 Km\h Cannondale
22/04/2016 Show to everybody òkjbàò ll 124.81 Km 453 m 04:39:30 26.79 Km\h Cannondale
19/04/2016 Show to everybody 4680j 99.61 Km 1994 m 04:46:41 20.85 Km\h Cannondale
12/04/2016 Show to everybody vv 45.49 Km 57 m 01:41:55 26.78 Km\h Cannondale
09/04/2016 Show to everybody settimana piena 123.99 Km 435 m 03:58:49 31.15 Km\h Cannondale
08/04/2016 Show to everybody mkl 41.19 Km 103 m 01:33:52 26.33 Km\h Cannondale
07/04/2016 Show to everybody 0. 173.21 Km 2035 m 06:45:22 25.64 Km\h Cannondale
06/04/2016 Show to everybody 3 72.53 Km 827 m 02:32:42 28.5 Km\h Cannondale
04/04/2016 Show to everybody 1 62.67 Km 150 m 02:16:35 27.53 Km\h Cannondale
02/04/2016 Show to everybody 1 171.61 Km 3083 m 06:40:11 25.73 Km\h Cannondale
31/03/2016 Show to everybody 944 67.98 Km 1706 m 03:00:29 22.6 Km\h Cannondale
29/03/2016 Show to everybody 9 66.11 Km 806 m 02:38:24 25.04 Km\h Cannondale
26/03/2016 Show to everybody , 23.71 Km 245 m 01:10:56 20.06 Km\h Cannondale
11/02/2016 Show to everybody calpe 1 36.55 Km 118 m 01:45:30 20.78 Km\h Cannondale
09/02/2016 Show to everybody calpe2 2.16 Km 66 m 00:04:56 26.33 Km\h Cannondale
08/02/2016 Show to everybody jjoiukkkukò 116.9 Km 2077 m 04:10:59 27.95 Km\h Cannondale
07/02/2016 Show to everybody jjoiukkkuk 74.45 Km 1529 m 03:00:32 24.75 Km\h Cannondale
05/02/2016 Show to everybody àà 110.39 Km 1454 m 04:05:52 26.94 Km\h Cannondale
04/02/2016 Show to everybody jjoiukkku 132.43 Km 2484 m 04:45:02 27.88 Km\h Cannondale
03/02/2016 Show to everybody jjoiu 121.73 Km 1833 m 04:21:57 27.88 Km\h Cannondale
02/02/2016 Show to everybody jjoiu 31.81 Km 465 m 01:09:03 27.64 Km\h Cannondale
27/01/2016 Show to everybody jiygt 50.48 Km 144 m 02:01:41 24.89 Km\h Cannondale
14/01/2016 Show to everybody 14 genn 153.25 Km 1554 m 05:37:50 27.22 Km\h Cannondale
10/01/2016 Show to everybody 14 genn via mala 113.57 Km 1444 m 04:23:51 25.83 Km\h Cannondale
06/01/2016 Show to everybody mnn 100.98 Km 809 m 03:24:20 29.65 Km\h Cannondale
02/01/2016 Show to everybody ufds67u 16.24 Km 71 m 00:42:47 22.77 Km\h Cannondale
02/01/2016 Show to everybody mnb 30.97 Km 551 m 01:46:56 17.37 Km\h Cannondale
01/01/2016 Show to everybody 1 118.56 Km 1888 m 04:41:37 25.26 Km\h Cannondale
27/12/2015 Show to everybody calpe1 105.66 Km 918 m 03:37:03 29.21 Km\h Cannondale
26/12/2015 Show to everybody mnnì 57.57 Km 229 m 01:59:29 28.91 Km\h Cannondale
24/12/2015 Show to everybody 2015 39.86 Km 635 m 02:13:54 17.86 Km\h Cannondale
08/11/2015 Show to everybody 1 104.01 Km 440 m 03:33:25 29.24 Km\h Cannondale
03/11/2015 Show to everybody 2 153.09 Km 1581 m 05:43:56 26.71 Km\h Cannondale
01/11/2015 Show to everybody 1 112.57 Km 775 m 03:43:43 30.19 Km\h Cannondale
31/10/2015 Show to everybody 33 125.3 Km 426 m 04:01:10 31.17 Km\h Cannondale
29/04/2015 Show to everybody m 74.63 Km 1256 m 02:58:11 25.13 Km\h Cannondale
28/04/2015 Show to everybody ò 63.74 Km 238 m 02:16:38 27.99 Km\h Cannondale
18/04/2015 Show to everybody gf 150.06 Km 1591 m 06:05:49 24.61 Km\h Cannondale
17/04/2015 Show to everybody selvino 66.05 Km 833 m 02:24:45 27.38 Km\h Cannondale
15/04/2015 Show to everybody .m 77.08 Km 1008 m 03:08:50 24.49 Km\h Cannondale
14/04/2015 Show to everybody .m 62.99 Km 705 m 02:23:17 26.38 Km\h Cannondale
12/04/2015 Show to everybody .m 107.03 Km 1989 m 03:19:38 32.17 Km\h Cannondale
11/04/2015 Show to everybody . 75.69 Km 437 m 02:48:29 26.96 Km\h Cannondale
10/04/2015 Show to everybody . 36.63 Km 51 m 01:23:47 26.23 Km\h Cannondale
09/04/2015 Show to everybody m 86.98 Km 276 m 02:56:43 29.53 Km\h Cannondale
09/04/2015 Show to everybody .m 86.98 Km 276 m 02:56:43 29.53 Km\h Cannondale
08/04/2015 Show to everybody .m. 140.48 Km 1200 m 05:32:39 25.34 Km\h Cannondale
08/04/2015 Show to everybody .m. 10.9 Km 25 m 00:26:24 24.77 Km\h Cannondale
08/04/2015 Show to everybody ,1 140.48 Km 1200 m 05:32:39 25.34 Km\h Cannondale
04/04/2015 Show to everybody , 79.05 Km 879 m 02:28:57 31.84 Km\h Cannondale
03/04/2015 Show to everybody , 95.77 Km 264 m 03:11:47 29.96 Km\h Cannondale
02/04/2015 Show to everybody , 74.61 Km 1326 m 02:58:00 25.15 Km\h Cannondale
01/04/2015 Show to everybody l 22.01 Km 10 m 00:48:46 27.09 Km\h Cannondale
31/03/2015 Show to everybody gf sant\`Angelo 77.67 Km 1033 m 02:49:52 27.43 Km\h Cannondale
29/03/2015 Show to everybody gf san?Angelo 155.11 Km 1587 m 04:16:56 36.22 Km\h Cannondale
20/03/2015 Show to everybody -à- 155.54 Km 1517 m 05:43:46 27.15 Km\h Cannondale
19/03/2015 Show to everybody ji 138.89 Km 2534 m 05:20:56 25.97 Km\h Cannondale
18/03/2015 Show to everybody tre salite 112.87 Km 2340 m 04:43:03 23.93 Km\h Cannondale
17/03/2015 Show to everybody polaveno giro lago 143.41 Km 881 m 05:03:37 28.34 Km\h Cannondale
15/03/2015 Show to everybody GIRO LAGO D ISEO 138.73 Km 516 m 04:22:25 31.72 Km\h Cannondale
12/03/2015 Show to everybody Vigolovia mala dezzo presolana Zambla 197.18 Km 3161 m 07:08:44 27.59 Km\h Cannondale
10/03/2015 Show to everybody bedulita 63.14 Km 971 m 02:20:32 26.96 Km\h Cannondale
08/03/2015 Show to everybody k 122.67 Km 1741 m 04:29:52 27.27 Km\h Cannondale
07/03/2015 Show to everybody m 110.18 Km 1404 m 04:23:07 25.13 Km\h Cannondale
03/03/2015 Show to everybody m 37.04 Km 76 m 01:19:36 27.92 Km\h Cannondale
02/03/2015 Show to everybody l 69.93 Km 276 m 02:23:25 29.26 Km\h Cannondale
28/02/2015 Show to everybody l 138.36 Km 2457 m 05:27:45 25.33 Km\h Cannondale
25/02/2015 Show to everybody l 18.12 Km 45 m 00:43:13 25.15 Km\h Cannondale
16/02/2015 Show to everybody roncola primi passi 52.57 Km 831 m 01:56:37 27.05 Km\h Cannondale
12/02/2015 Show to everybody via mala 170.99 Km 1791 m 06:06:01 28.03 Km\h Cannondale
08/02/2015 Show to everybody .l 110.29 Km 1021 m 03:59:36 27.62 Km\h Cannondale
04/02/2015 Show to everybody l 84.83 Km 1085 m 03:20:04 25.44 Km\h Cannondale
04/02/2015 Show to everybody ,-ò 84.83 Km 1085 m 03:20:04 25.44 Km\h Cannondale
04/02/2015 Show to everybody san fermo 84.83 Km 1085 m 03:20:04 25.44 Km\h Cannondale
02/02/2015 Show to everybody . 43.43 Km 490 m 01:44:22 24.97 Km\h Cannondale
01/02/2015 Show to everybody vigolo prima tirata 94.09 Km 866 m 03:11:59 29.41 Km\h Cannondale
27/01/2015 Show to everybody 27 123.43 Km 254 m 04:13:46 29.18 Km\h Cannondale
25/01/2015 Show to everybody 25 109.7 Km 1185 m 03:55:02 28.01 Km\h Cannondale
24/01/2015 Show to everybody 24 125.82 Km 1215 m 04:25:09 28.47 Km\h Cannondale
20/01/2015 Show to everybody 20 45.47 Km 719 m 01:46:42 25.57 Km\h Cannondale
18/01/2015 Show to everybody 18 111.9 Km 405 m 03:45:37 29.76 Km\h Cannondale
17/01/2015 Show to everybody 17 82.05 Km 749 m 03:04:21 26.71 Km\h Cannondale
15/01/2015 Show to everybody 16 124.02 Km 451 m 03:49:23 32.44 Km\h Cannondale
11/01/2015 Show to everybody 11 130.42 Km 1113 m 04:31:46 28.79 Km\h Cannondale
09/01/2015 Show to everybody 10 16.42 Km 22 m 00:32:16 30.53 Km\h Cannondale
07/01/2015 Show to everybody 7 141.19 Km 478 m 04:38:48 30.39 Km\h Cannondale
06/01/2015 Show to everybody 6 92.97 Km 696 m 03:24:53 27.23 Km\h Cannondale
05/01/2015 Show to everybody 4 149.32 Km 1351 m 05:19:06 28.08 Km\h Cannondale
04/01/2015 Show to everybody 5 19.4 Km 52 m 00:47:44 24.38 Km\h Cannondale
03/01/2015 Show to everybody 3 110.64 Km 1126 m 04:02:44 27.35 Km\h Cannondale
02/01/2015 Show to everybody 2 129.94 Km 445 m 04:12:23 30.89 Km\h Cannondale
01/01/2015 Show to everybody 1 69.67 Km 315 m 02:20:12 29.82 Km\h Cannondale
12/12/2014 Show to everybody mnm 126.16 Km 371 m 05:10:25 24.39 Km\h Cannondale
08/12/2014 Show to everybody ò.ò 124.25 Km 731 m 03:41:47 33.61 Km\h Cannondale
07/12/2014 Show to everybody g,lago 125.46 Km 444 m 03:09:26 39.74 Km\h Cannondale
26/12/2014 Show to everybody m 95.44 Km 722 m 03:05:33 30.86 Km\h Cannondale
20/12/2014 Show to everybody passo presolana 119.15 Km 1477 m 05:22:40 22.16 Km\h Cannondale
20/12/2014 Show to everybody 2014 119.14 Km 1477 m 05:22:40 22.16 Km\h Cannondale
20/12/2014 Show to everybody 20014 119.14 Km 1477 m 05:22:40 22.16 Km\h Cannondale
08/11/2014 Show to everybody 1 131.28 Km 430 m 03:25:43 38.29 Km\h Cannondale
13/07/2014 Show to everybody ò.ò 69.86 Km 849 m 03:40:08 19.04 Km\h Cannondale
12/07/2014 Show to everybody òlp 97.69 Km 730 m 04:04:25 23.98 Km\h Cannondale
10/07/2014 Show to everybody prima uscita 117.15 Km 1149 m 04:27:31 26.27 Km\h Cannondale
09/07/2014 Show to everybody fasano 3.08 Km 117 m 00:06:13 29.68 Km\h Cannondale
22/06/2014 Show to everybody pantani 166.67 Km 4150 m 07:02:23 23.68 Km\h Cannondale
17/06/2014 Show to everybody lago 80.64 Km 182 m 03:22:26 23.9 Km\h Cannondale
15/06/2014 Show to everybody sportful 203.64 Km 4702 m 08:52:59 22.92 Km\h Cannondale
12/06/2014 Show to everybody sca 101.29 Km 342 m 04:22:40 23.14 Km\h Cannondale
08/06/2014 Show to everybody Eddy merckx 137.99 Km 2779 m 05:13:43 26.39 Km\h Cannondale
06/06/2014 Show to everybody sca 34.34 Km 49 m 01:26:15 23.89 Km\h Cannondale
05/06/2014 Show to everybody sca 32.92 Km 143 m 01:22:11 24.04 Km\h Cannondale
04/06/2014 Show to everybody gl 125.34 Km 311 m 04:38:46 26.98 Km\h Cannondale
02/06/2014 Show to everybody scarico 113.98 Km 412 m 04:00:08 28.48 Km\h Cannondale
01/06/2014 Show to everybody gf santini 142.37 Km 4272 m 06:10:41 23.05 Km\h Cannondale
01/06/2014 Show to everybody discesa stelvio 22.38 Km 2 m 00:48:32 27.67 Km\h Cannondale
24/05/2014 Show to everybody presolana 151.43 Km 2721 m 06:44:47 22.45 Km\h Cannondale
21/05/2014 Show to everybody scarico 53.15 Km 767 m 02:08:56 24.73 Km\h Cannondale
17/05/2014 Show to everybody 9 colli 17.55 Km 11 m 01:09:23 15.18 Km\h Cannondale
15/05/2014 Show to everybody s 57.45 Km 740 m 02:22:38 24.17 Km\h Cannondale
11/05/2014 Show to everybody Valli bresciani 155.83 Km 3074 m 05:19:11 29.29 Km\h Cannondale
08/05/2014 Show to everybody scarico Felice 109.09 Km 1603 m 04:45:11 22.95 Km\h Cannondale
04/05/2014 Show to everybody Felice Gimondi 151.31 Km 3078 m 04:56:10 30.65 Km\h Cannondale
01/05/2014 Show to everybody iret 86.52 Km 1208 m 03:35:40 24.07 Km\h Cannondale
27/04/2014 Show to everybody marostica 101.3 Km 1125 m 03:18:55 30.55 Km\h Cannondale
22/04/2014 Show to everybody giretto 89.41 Km 1170 m 03:26:13 26.01 Km\h Cannondale
20/04/2014 Show to everybody a canna 99.97 Km 1778 m 04:23:15 22.78 Km\h Cannondale
17/04/2014 Show to everybody prova dossena x felice 97.58 Km 1893 m 04:08:45 23.54 Km\h Cannondale
13/04/2014 Show to everybody Liotto 129.98 Km 2655 m 04:13:37 30.75 Km\h Cannondale
11/04/2014 Show to everybody n 21.5 Km 228 m 00:46:19 27.86 Km\h Cannondale
10/04/2014 Show to everybody 10 81.01 Km 280 m 02:48:31 28.84 Km\h Cannondale
09/04/2014 Show to everybody 9 104.73 Km 939 m 03:48:54 27.45 Km\h Cannondale
07/04/2014 Show to everybody scarico 45.59 Km 126 m 01:31:51 29.78 Km\h Cannondale
06/04/2014 Show to everybody selleIalia 147.62 Km 1945 m 04:18:45 34.23 Km\h Cannondale
02/04/2014 Show to everybody scarico 115.73 Km 1397 m 04:37:24 25.03 Km\h Cannondale
31/03/2014 Show to everybody sarnico 60.52 Km 199 m 02:18:41 26.18 Km\h Cannondale
30/03/2014 Show to everybody Giro lago 123.93 Km 383 m 03:48:33 32.53 Km\h Cannondale
29/03/2014 Show to everybody lago via mala dezzo presolana orezzo 180.66 Km 2123 m 06:16:27 28.79 Km\h Cannondale
28/03/2014 Show to everybody ruzzatina del venerdi 149.97 Km 2180 m 05:40:59 26.39 Km\h Cannondale
27/03/2014 Show to everybody scarico 84.94 Km 268 m 02:53:28 29.38 Km\h Cannondale
26/03/2014 Show to everybody scarico 26 109.21 Km 1123 m 03:52:05 28.23 Km\h Cannondale
25/03/2014 Show to everybody scarico25 102.16 Km 1341 m 04:07:47 24.74 Km\h Cannondale
24/03/2014 Show to everybody scarico 171.16 Km 1392 m 05:48:07 29.5 Km\h Cannondale
22/03/2014 Show to everybody 175 172.74 Km 1990 m 06:31:47 26.45 Km\h Cannondale
20/03/2014 Show to everybody scarico 54.33 Km 290 m 02:02:48 26.55 Km\h Cannondale
19/03/2014 Show to everybody cane sciolto 101.88 Km 2332 m 04:25:40 23.01 Km\h Cannondale
17/03/2014 Show to everybody scarico 70.58 Km 1223 m 02:48:43 25.1 Km\h Cannondale
16/03/2014 Show to everybody scarico 139.72 Km 420 m 04:23:41 31.79 Km\h Cannondale
15/03/2014 Show to everybody gandosso s.fermo gallo orezzo 119.49 Km 2932 m 05:28:14 21.84 Km\h Cannondale
13/03/2014 Show to everybody giretto in altura 149.92 Km 2635 m 06:01:06 24.91 Km\h Cannondale
12/03/2014 Show to everybody g 54.99 Km 221 m 01:54:14 28.89 Km\h Cannondale
09/03/2014 Show to everybody Randolario 224.93 Km 2392 m 07:11:34 31.27 Km\h Cannondale
08/03/2014 Show to everybody felice medio 116.4 Km 1507 m 03:59:36 29.15 Km\h Cannondale
05/03/2014 Show to everybody scarico 48.12 Km 306 m 01:52:03 25.76 Km\h Cannondale
04/03/2014 Show to everybody scarico 63.43 Km 247 m 02:06:37 30.06 Km\h Cannondale
02/03/2014 Show to everybody lu 111.05 Km 2134 m 04:28:42 24.8 Km\h Cannondale
23/02/2014 Show to everybody Laigueglia 93.75 Km 0 m 02:59:15 31.38 Km\h Cannondale
22/02/2014 Show to everybody pre laigueglia 36.38 Km 0 m 01:28:52 24.56 Km\h Cannondale
21/02/2014 Show to everybody g 53.97 Km 258 m 02:23:23 22.59 Km\h Cannondale
19/02/2014 Show to everybody scarico 53.58 Km 181 m 01:58:07 27.22 Km\h Cannondale
18/02/2014 Show to everybody Vigolo 117.83 Km 811 m 04:16:38 27.55 Km\h Cannondale
17/02/2014 Show to everybody giro lago Iseo 158.24 Km 821 m 04:59:53 31.66 Km\h Cannondale
15/02/2014 Show to everybody gandosso vigolo filone 128.84 Km 1348 m 04:35:57 28.01 Km\h Cannondale
14/02/2014 Show to everybody bedulita roncola 78.55 Km 1645 m 03:31:06 22.33 Km\h Cannondale
02/02/2014 Show to everybody ,.L 60.2 Km 972 m 02:23:51 25.11 Km\h Cannondale
02/02/2014 Show to everybody bedulita 60.2 Km 972 m 02:23:51 25.11 Km\h Cannondale
25/01/2014 Show to everybody tre s 122.95 Km 1368 m 04:36:58 26.64 Km\h Cannondale
22/01/2014 Show to everybody roncola 48.56 Km 804 m 01:57:11 24.86 Km\h Cannondale
06/01/2014 Show to everybody filone con yuriy 109.16 Km 673 m 03:38:07 30.03 Km\h Cannondale
03/01/2014 Show to everybody gandossox2 filone 129.01 Km 1238 m 05:00:14 25.78 Km\h Cannondale
01/01/2014 Show to everybody schefe 39.78 Km 0 m 01:26:22 27.63 Km\h Cannondale
27/12/2013 Show to everybody Vigolo Soltocollina Filone 150.89 Km 1402 m 05:15:57 28.65 Km\h Cannondale
18/12/2013 Show to everybody Filone 109.54 Km 681 m 03:30:12 31.27 Km\h Cannondale
14/12/2013 Show to everybody filu 115.06 Km 755 m 03:52:16 29.72 Km\h Cannondale
12/12/2013 Show to everybody lago 132.72 Km 504 m 04:42:03 28.23 Km\h Cannondale
07/12/2013 Show to everybody filu 130.61 Km 721 m 04:31:30 28.86 Km\h Cannondale
05/12/2013 Show to everybody lago 109.03 Km 337 m 03:52:51 28.09 Km\h Cannondale
01/12/2013 Show to everybody tavernola 89.92 Km 454 m 03:06:22 28.95 Km\h Cannondale
29/11/2013 Show to everybody Filone 132.16 Km 811 m 04:49:00 27.44 Km\h Cannondale
28/11/2013 Show to everybody giro lago d\`iseo 123.69 Km 353 m 04:32:50 27.2 Km\h Cannondale
27/11/2013 Show to everybody glag 124.38 Km 326 m 04:32:22 27.4 Km\h Cannondale
23/11/2013 Show to everybody nhbh 97.91 Km 468 m 03:40:51 26.6 Km\h Cannondale
10/11/2013 Show to everybody m 109.92 Km 548 m 03:40:44 29.88 Km\h Cannondale
06/11/2013 Show to everybody lago 126.46 Km 348 m 04:00:51 31.5 Km\h Cannondale
03/11/2013 Show to everybody Endine lovere 104.89 Km 356 m 03:32:05 29.67 Km\h Cannondale
31/10/2013 Show to everybody laghi 91.36 Km 403 m 03:09:38 28.91 Km\h Cannondale
18/08/2013 Show to everybody giro lago Iseo 128.07 Km 296 m 04:11:00 30.62 Km\h Cannondale
18/08/2013 Show to everybody m 128.07 Km 296 m 04:11:00 30.62 Km\h Cannondale
13/08/2013 Show to everybody , 200.28 Km 5244 m 09:28:26 21.14 Km\h Cannondale
10/08/2013 Show to everybody nh 197.54 Km 3657 m 07:41:22 25.69 Km\h Cannondale
08/08/2013 Show to everybody N 29.6 Km 182 m 01:05:47 27 Km\h Cannondale
31/07/2013 Show to everybody san marco 212.1 Km 3679 m 08:16:16 25.64 Km\h Cannondale
27/07/2013 Show to everybody san fermo ecc 184.21 Km 3402 m 07:43:08 23.87 Km\h Cannondale
02/07/2013 Show to everybody f 42.24 Km 368 m 01:43:06 24.58 Km\h Cannondale
16/06/2013 Show to everybody sportful 211.73 Km 5225 m 08:07:08 26.08 Km\h Cannondale
14/06/2013 Show to everybody 14 27.85 Km 68 m 00:58:57 28.34 Km\h Cannondale
11/06/2013 Show to everybody 11 151.43 Km 1450 m 05:36:21 27.01 Km\h Cannondale
03/06/2013 Show to everybody 03 giugno 104.02 Km 379 m 03:17:45 31.56 Km\h Cannondale
19/05/2013 Show to everybody Nove colli 201.4 Km 3721 m 06:39:47 30.23 Km\h Cannondale
07/04/2013 Show to everybody GF Cervia 140.22 Km 1892 m 04:19:09 32.46 Km\h Cannondale
03/04/2013 Show to everybody iseo 83.56 Km 353 m 02:54:02 28.81 Km\h Cannondale
31/03/2013 Show to everybody Tavernola Solto Collina 97.46 Km 32 m 03:19:55 29.25 Km\h Cannondale
26/03/2013 Show to everybody selvino aviatico barcca 67.6 Km 937 m 02:29:32 27.13 Km\h Cannondale
22/03/2013 Show to everybody tavernola 86.84 Km 306 m 02:50:52 30.49 Km\h Cannondale
21/03/2013 Show to everybody S.Fermo Gandosso S.Fermo 110.69 Km 2176 m 04:26:40 24.91 Km\h Cannondale
19/03/2013 Show to everybody Due san fermo 81.96 Km 1404 m 03:24:19 24.07 Km\h Cannondale
17/03/2013 Show to everybody tavernola solto collina 91.48 Km 501 m 03:26:53 26.53 Km\h Cannondale
16/03/2013 Show to everybody selvino,aviatico,trafficanti ecc ecc ecc 25.74 Km 755 m 01:16:23 20.22 Km\h Cannondale
16/03/2013 Show to everybody il resto del gioro 106 Km 2144 m 04:38:13 22.86 Km\h Cannondale
15/03/2013 Show to everybody Lovere 107.44 Km 415 m 03:21:59 31.92 Km\h Cannondale
13/03/2013 Show to everybody 3 Roncole 75.07 Km 1866 m 03:17:28 22.81 Km\h Cannondale
11/03/2013 Show to everybody selvino bracca 76.49 Km 881 m 02:48:06 27.3 Km\h Cannondale
09/03/2013 Show to everybody S.Fermo gallo selvino Brembilla axolo berbenno bedulita roncola 166.58 Km 3422 m 07:15:56 22.93 Km\h Cannondale
04/03/2013 Show to everybody scarico 41.75 Km 253 m 01:37:13 25.77 Km\h Cannondale
03/03/2013 Show to everybody BG via mala Dezzo presolana bg 134.75 Km 1379 m 04:21:48 30.88 Km\h Cannondale
02/03/2013 Show to everybody giro lago d\`iseo 113.36 Km 411 m 03:40:40 30.82 Km\h Cannondale
27/02/2013 Show to everybody scarico 39.12 Km 70 m 01:21:55 28.65 Km\h Cannondale
26/02/2013 Show to everybody globe 29.79 Km 163 m 01:00:13 29.69 Km\h Cannondale
23/02/2013 Show to everybody gandosso lovere soltocollina 120.89 Km 930 m 04:07:59 29.25 Km\h Cannondale
20/02/2013 Show to everybody San Fermo colle Gallo 101.72 Km 1506 m 04:00:45 25.35 Km\h Cannondale
16/02/2013 Show to everybody polaveno 100.63 Km 755 m 03:23:51 29.62 Km\h Cannondale
13/02/2013 Show to everybody selvino 49.97 Km 747 m 01:52:04 26.75 Km\h Cannondale
10/02/2013 Show to everybody gf laigueglia 118.24 Km 1744 m 03:23:54 34.79 Km\h Cannondale
09/02/2013 Show to everybody sarnico 62.78 Km 195 m 02:41:52 23.27 Km\h Cannondale
15/02/2009 Show to everybody scarico 42.87 Km 84 m 01:26:20 29.79 Km\h Cannondale
01/01/1970 Show to everybody Giro Felice Gimondi tranne valSecca 0 Km 0 m 0 Km\h Cannondale
01/01/1970 Show to everybody lago d\`iseo 0 Km 0 m 0 Km\h Cannondale
01/01/1970 Show to everybody giro felice 0 Km 0 m 0 Km\h Cannondale
01/01/1970 Show to everybody giro felice 0 Km 0 m 0 Km\h Cannondale
01/01/1970 Show to everybody giro felic 0 Km 0 m 0 Km\h Cannondale
01/01/1970 Show to everybody giro felice 0 Km 0 m 0 Km\h Cannondale
01/01/1970 Show to everybody ol 0 Km 0 m 0 Km\h Cannondale
01/01/1970 Show to everybody giro Felice 0 Km 0 m 0 Km\h Cannondale
01/01/1970 Show to everybody giro Felice 0 Km 0 m 0 Km\h Cannondale
01/01/1970 Show to everybody l 0 Km 0 m 0 Km\h Cannondale
01/01/1970 Show to everybody Giro Felice 0 Km 0 m 0 Km\h Cannondale
01/01/1970 Show to everybody GiroFelice Gimo 0 Km 0 m 0 Km\h Cannondale
01/01/1970 Show to everybody giro felice 0 Km 0 m 0 Km\h Cannondale
01/01/1970 Show to everybody felice g 0 Km 0 m 0 Km\h Cannondale
01/01/1970 Show to everybody felice g 0 Km 0 m 0 Km\h Cannondale
01/01/1970 Show to everybody felice g 0 Km 0 m 0 Km\h Cannondale

Show previous years trainings
This user's bikes.
Cannondale 235 21916.09 Km 238320 m 810:00:11 27.09 Km/h

791 points
Kilometers
2
Vertical gain
3
Rank:19

Watch ranking »

 

Bike name

Delete this bike?

Now you follow this users and you can compare your trainings

If you stop following this users you will not be able to compare your trainings with his


bdc-forum.it | 2012-2019 Training Camp v.1.0.15